WAJJ/DJJ METAR and TAF weather

Enter ICAO airport designator
Station Type Date Time Source
WAJJ METAR 2022/06/26 08:00 UTC NOAA

WAJJ 260800Z 13004KT 9999 FEW013 29/23 Q1006 NOSIG


Station Type Date Time Source
WAJJ Decoded METAR 2022/06/26 08:00 UTC NOAA

Jayapura / Sentani, Indonesia (WAJJ) 02-34S 140-29E 99M
Jun 26, 2022 - 04:00 AM EDT / 2022.06.26 0800 UTC
Wind: from the SE (130 degrees) at 5 MPH (4 KT):0
Visibility: greater than 7 mile(s):0
Sky conditions: mostly clear
Temperature: 84 F (29 C)
Dew Point: 73 F (23 C)
Relative Humidity: 70%
Pressure (altimeter): 29.71 in. Hg (1006 hPa)
ob: WAJJ 260800Z 13004KT 9999 FEW013 29/23 Q1006 NOSIG
cycle: 8

Station Type Date Time Source
WAJJ TAF 2013/03/11 12:00 UTC NOAA

TAF WAJJ 111100Z 1112/1212 29006KT 5000 HZ SCT016
TEMPO 1113/1121 4000 RA FEW014CB
BECMG 1200/1202 28012KT 9999
TEMPO 1207/1212 6000 RA FEW014CB

Example: see airport list